Time;durP1;ratioP1;P1;durP2;ratioP2;P2;SDS_P1;SDS_P2;PMS_P1;PMS_P2;Temp;Humidity;BMP_temperature;BMP_pressure;BME280_temperature;BME280_humidity;BME280_pressure;Samples;Min_cycle;Max_cycle;Signal;HPM_P1;HPM_P2
2023/05/07 00:00:23;;;;;;;8.32;4.97;;;;;;;;;;4938640;29;20055;-77
2023/05/07 00:02:49;;;;;;;7.22;4.65;;;;;;;;;;4939883;29;20030;-77
2023/05/07 00:05:15;;;;;;;7.32;4.15;;;;;;;;;;4938643;29;20031;-77
2023/05/07 00:07:41;;;;;;;6.65;4.45;;;;;;;;;;4939431;29;20343;-77
2023/05/07 00:10:07;;;;;;;8.98;4.50;;;;;;;;;;4939771;29;20055;-77
2023/05/07 00:12:33;;;;;;;8.10;4.80;;;;;;;;;;4939511;29;20054;-77
2023/05/07 00:15:03;;;;;;;6.80;4.15;;;;;;;;;;4939311;29;20039;-77
2023/05/07 00:17:30;;;;;;;6.30;4.57;;;;;;;;;;4937684;29;20060;-77
2023/05/07 00:19:56;;;;;;;7.35;4.25;;;;;;;;;;4942624;29;20091;-77
2023/05/07 00:22:22;;;;;;;5.60;4.15;;;;;;;;;;4943339;29;20375;-78
2023/05/07 00:24:48;;;;;;;11.23;4.40;;;;;;;;;;4943190;29;20031;-77
2023/05/07 00:27:14;;;;;;;5.88;4.30;;;;;;;;;;4943235;29;20095;-77
2023/05/07 00:29:40;;;;;;;5.13;4.55;;;;;;;;;;4943068;29;20031;-77
2023/05/07 00:32:06;;;;;;;5.35;3.88;;;;;;;;;;4941475;29;20036;-77
2023/05/07 00:34:32;;;;;;;6.20;4.47;;;;;;;;;;4944395;29;20030;-78
2023/05/07 00:36:58;;;;;;;5.43;4.60;;;;;;;;;;4941961;29;20032;-78
2023/05/07 00:39:24;;;;;;;7.93;4.25;;;;;;;;;;4943132;29;20082;-78
2023/05/07 00:41:51;;;;;;;5.28;4.10;;;;;;;;;;4952673;29;20032;-78
2023/05/07 00:44:18;;;;;;;5.85;4.05;;;;;;;;;;4961515;29;20110;-78
2023/05/07 00:46:44;;;;;;;7.70;4.13;;;;;;;;;;4962220;29;20031;-77
2023/05/07 00:49:11;;;;;;;11.35;4.60;;;;;;;;;;4961839;29;20062;-78
2023/05/07 00:51:37;;;;;;;6.18;4.18;;;;;;;;;;4962040;29;20042;-77
2023/05/07 00:54:03;;;;;;;7.15;4.55;;;;;;;;;;4961892;29;20414;-77
2023/05/07 00:56:29;;;;;;;6.55;3.92;;;;;;;;;;4961612;29;20035;-77
2023/05/07 00:58:56;;;;;;;7.53;4.53;;;;;;;;;;4944138;29;20035;-78
2023/05/07 01:01:22;;;;;;;6.28;4.53;;;;;;;;;;4961577;29;20074;-77
2023/05/07 01:03:48;;;;;;;5.55;4.38;;;;;;;;;;4961991;29;20024;-76
2023/05/07 01:06:16;;;;;;;8.45;4.22;;;;;;;;;;4961716;29;20061;-77
2023/05/07 01:08:43;;;;;;;8.35;4.60;;;;;;;;;;4961538;29;20406;-77
2023/05/07 01:11:09;;;;;;;7.25;4.32;;;;;;;;;;4961571;29;20035;-77
2023/05/07 01:13:35;;;;;;;6.75;4.47;;;;;;;;;;4961163;29;20031;-77
2023/05/07 01:16:02;;;;;;;7.63;4.40;;;;;;;;;;4946309;29;20152;-77
2023/05/07 01:18:29;;;;;;;5.20;4.00;;;;;;;;;;4942024;29;20039;-78
2023/05/07 01:20:57;;;;;;;6.40;4.55;;;;;;;;;;4942145;29;20122;-78
2023/05/07 01:23:23;;;;;;;6.70;4.20;;;;;;;;;;4942137;29;20020;-78
2023/05/07 01:25:55;;;;;;;6.43;4.53;;;;;;;;;;4942289;29;20024;-77
2023/05/07 01:28:21;;;;;;;6.50;4.57;;;;;;;;;;4942107;29;20411;-77
2023/05/07 01:30:50;;;;;;;8.50;4.88;;;;;;;;;;4941930;29;20106;-78
2023/05/07 01:33:18;;;;;;;5.70;4.90;;;;;;;;;;4942099;29;20035;-78
2023/05/07 01:35:45;;;;;;;6.78;4.72;;;;;;;;;;4943859;29;20023;-78
2023/05/07 01:38:12;;;;;;;6.50;4.82;;;;;;;;;;4960966;29;20043;-77
2023/05/07 01:40:38;;;;;;;7.30;4.50;;;;;;;;;;4960905;29;20015;-77
2023/05/07 01:43:05;;;;;;;6.32;4.78;;;;;;;;;;4960934;29;20042;-77
2023/05/07 01:45:32;;;;;;;5.30;4.70;;;;;;;;;;4960828;29;20031;-77
2023/05/07 01:47:59;;;;;;;6.40;4.90;;;;;;;;;;4960955;29;20043;-77
2023/05/07 01:50:25;;;;;;;6.90;4.85;;;;;;;;;;4960966;29;20060;-78
2023/05/07 01:52:52;;;;;;;5.95;4.80;;;;;;;;;;4960717;29;20470;-77
2023/05/07 01:55:19;;;;;;;6.68;4.55;;;;;;;;;;4960842;29;20030;-77
2023/05/07 01:57:45;;;;;;;7.35;5.22;;;;;;;;;;4960307;29;20035;-78
2023/05/07 02:00:11;;;;;;;7.18;4.93;;;;;;;;;;4960729;29;20027;-77
2023/05/07 02:02:38;;;;;;;7.63;5.30;;;;;;;;;;4943709;29;20031;-78
2023/05/07 02:05:04;;;;;;;10.05;5.53;;;;;;;;;;4960594;29;20023;-77
2023/05/07 02:07:30;;;;;;;8.30;5.35;;;;;;;;;;4960662;29;20035;-77
2023/05/07 02:09:56;;;;;;;7.47;5.30;;;;;;;;;;4960537;29;20314;-77
2023/05/07 02:12:23;;;;;;;5.43;4.80;;;;;;;;;;4960380;29;20295;-77
2023/05/07 02:14:49;;;;;;;9.68;5.55;;;;;;;;;;4958834;29;20385;-77
2023/05/07 02:17:15;;;;;;;7.88;5.07;;;;;;;;;;4960206;29;20039;-77
2023/05/07 02:19:41;;;;;;;7.40;5.10;;;;;;;;;;4960151;29;20322;-77
2023/05/07 02:22:08;;;;;;;7.40;5.38;;;;;;;;;;4943734;29;20084;-77
2023/05/07 02:24:34;;;;;;;8.57;4.97;;;;;;;;;;4941114;29;20029;-76
2023/05/07 02:27:01;;;;;;;7.68;5.70;;;;;;;;;;4940979;29;20023;-77
2023/05/07 02:29:27;;;;;;;9.57;5.47;;;;;;;;;;4941057;29;20153;-77
2023/05/07 02:31:53;;;;;;;9.55;4.95;;;;;;;;;;4941122;29;20032;-77
2023/05/07 02:34:19;;;;;;;6.50;5.38;;;;;;;;;;4941081;29;20024;-78
2023/05/07 02:36:45;;;;;;;7.85;5.65;;;;;;;;;;4939811;29;20043;-77
2023/05/07 02:39:12;;;;;;;11.85;5.60;;;;;;;;;;4940564;29;20126;-78
2023/05/07 02:41:38;;;;;;;6.85;5.45;;;;;;;;;;4952687;28;20334;-78
2023/05/07 02:44:04;;;;;;;8.73;6.35;;;;;;;;;;4959847;29;20034;-78
2023/05/07 02:46:30;;;;;;;6.72;5.28;;;;;;;;;;4959794;29;20070;-78
2023/05/07 02:48:56;;;;;;;6.88;5.47;;;;;;;;;;4942477;29;20035;-78
2023/05/07 02:51:23;;;;;;;9.68;5.65;;;;;;;;;;4957809;29;20393;-78
2023/05/07 02:53:49;;;;;;;7.97;5.25;;;;;;;;;;4959758;29;20031;-77
2023/05/07 02:56:15;;;;;;;12.25;5.53;;;;;;;;;;4959590;29;20034;-78
2023/05/07 02:58:44;;;;;;;8.13;5.10;;;;;;;;;;4942601;29;20034;-77
2023/05/07 03:01:11;;;;;;;7.22;5.28;;;;;;;;;;4959235;29;20034;-77
2023/05/07 03:03:37;;;;;;;10.48;5.57;;;;;;;;;;4940807;29;20019;-78
2023/05/07 03:06:03;;;;;;;7.55;5.55;;;;;;;;;;4959594;29;20027;-77
2023/05/07 03:08:29;;;;;;;8.88;5.10;;;;;;;;;;4942496;29;20031;-77
2023/05/07 03:10:55;;;;;;;6.15;4.95;;;;;;;;;;4959118;29;20410;-77
2023/05/07 03:13:21;;;;;;;7.18;5.35;;;;;;;;;;4940356;29;20086;-77
2023/05/07 03:15:47;;;;;;;8.75;5.68;;;;;;;;;;4959329;29;20024;-77
2023/05/07 03:18:13;;;;;;;8.27;5.60;;;;;;;;;;4959389;29;20034;-77
2023/05/07 03:20:39;;;;;;;10.77;6.10;;;;;;;;;;4948169;29;20035;-77
2023/05/07 03:23:05;;;;;;;10.75;5.25;;;;;;;;;;4940213;29;20030;-77
2023/05/07 03:25:33;;;;;;;9.60;5.80;;;;;;;;;;4939880;29;20160;-78
2023/05/07 03:27:59;;;;;;;9.02;5.20;;;;;;;;;;4940203;29;20031;-77
2023/05/07 03:30:25;;;;;;;7.82;5.20;;;;;;;;;;4940318;29;20311;-77
2023/05/07 03:32:51;;;;;;;7.82;6.00;;;;;;;;;;4940321;29;20051;-77
2023/05/07 03:35:17;;;;;;;10.38;5.72;;;;;;;;;;4940261;29;20035;-78
2023/05/07 03:37:43;;;;;;;11.45;5.75;;;;;;;;;;4939854;29;20371;-78
2023/05/07 03:40:10;;;;;;;9.00;5.43;;;;;;;;;;4939954;29;20316;-77
2023/05/07 03:42:36;;;;;;;5.82;5.18;;;;;;;;;;4939793;29;20453;-78
2023/05/07 03:45:02;;;;;;;13.90;5.57;;;;;;;;;;4922866;29;20127;-78
2023/05/07 03:47:28;;;;;;;9.63;5.40;;;;;;;;;;4939934;29;20024;-78
2023/05/07 03:49:56;;;;;;;9.70;5.22;;;;;;;;;;4939305;29;20079;-77
2023/05/07 03:52:25;;;;;;;15.23;5.75;;;;;;;;;;4939447;29;20046;-77
2023/05/07 03:54:51;;;;;;;8.65;5.60;;;;;;;;;;4939386;29;20059;-79
2023/05/07 03:57:17;;;;;;;12.57;5.50;;;;;;;;;;4939791;29;20031;-77
2023/05/07 03:59:43;;;;;;;9.95;5.43;;;;;;;;;;4922888;29;20035;-78
2023/05/07 04:02:09;;;;;;;9.15;5.22;;;;;;;;;;4939780;29;20083;-78
2023/05/07 04:04:35;;;;;;;6.80;5.45;;;;;;;;;;4939738;29;20024;-79
2023/05/07 04:07:02;;;;;;;7.70;5.45;;;;;;;;;;4939910;29;20376;-78
2023/05/07 04:09:29;;;;;;;8.52;5.90;;;;;;;;;;4939782;29;20102;-78
2023/05/07 04:11:55;;;;;;;11.75;6.07;;;;;;;;;;4939674;29;20043;-78
2023/05/07 04:14:21;;;;;;;7.32;5.63;;;;;;;;;;4938630;29;20028;-79
2023/05/07 04:16:47;;;;;;;7.72;5.75;;;;;;;;;;4939639;29;20030;-78
2023/05/07 04:19:13;;;;;;;9.73;6.00;;;;;;;;;;4939520;29;20027;-79
2023/05/07 04:21:39;;;;;;;8.02;5.32;;;;;;;;;;4939726;29;20056;-78
2023/05/07 04:24:06;;;;;;;6.50;5.68;;;;;;;;;;4938426;29;20051;-78
2023/05/07 04:26:32;;;;;;;7.75;5.85;;;;;;;;;;4939626;29;20035;-77
2023/05/07 04:28:59;;;;;;;8.27;5.57;;;;;;;;;;4939368;29;20079;-77
2023/05/07 04:31:25;;;;;;;10.75;5.90;;;;;;;;;;4939579;29;20042;-77
2023/05/07 04:33:51;;;;;;;9.00;6.70;;;;;;;;;;4939276;29;20032;-76
2023/05/07 04:36:18;;;;;;;8.18;5.43;;;;;;;;;;4939369;29;20330;-77
2023/05/07 04:38:44;;;;;;;9.88;5.97;;;;;;;;;;4945434;29;20098;-76
2023/05/07 04:41:11;;;;;;;10.30;5.78;;;;;;;;;;4939421;29;20039;-76
2023/05/07 04:43:37;;;;;;;9.90;5.15;;;;;;;;;;4939300;29;20106;-77
2023/05/07 04:46:03;;;;;;;8.85;6.03;;;;;;;;;;4947336;29;20030;-77
2023/05/07 04:48:29;;;;;;;8.57;5.90;;;;;;;;;;4938875;29;20039;-77
2023/05/07 04:50:55;;;;;;;7.25;5.60;;;;;;;;;;4924409;29;20059;-77
2023/05/07 04:53:22;;;;;;;9.15;5.75;;;;;;;;;;4932064;29;20131;-77
2023/05/07 04:55:48;;;;;;;9.98;5.93;;;;;;;;;;4938949;29;20024;-77
2023/05/07 04:58:14;;;;;;;7.47;5.85;;;;;;;;;;4937943;29;20024;-77
2023/05/07 05:00:40;;;;;;;9.02;6.03;;;;;;;;;;4938505;29;20028;-77
2023/05/07 05:03:10;;;;;;;9.35;6.40;;;;;;;;;;4953857;29;20027;-77
2023/05/07 05:05:36;;;;;;;16.90;11.32;;;;;;;;;;4944228;29;20028;-76
2023/05/07 05:08:02;;;;;;;69.78;44.63;;;;;;;;;;4942568;29;20067;-76
2023/05/07 05:10:28;;;;;;;29.70;20.45;;;;;;;;;;4942080;29;20077;-76
2023/05/07 05:12:54;;;;;;;35.30;23.90;;;;;;;;;;4941060;29;20036;-76
2023/05/07 05:15:20;;;;;;;31.60;22.45;;;;;;;;;;4942411;29;20028;-76
2023/05/07 05:17:47;;;;;;;26.70;17.45;;;;;;;;;;4942501;29;20038;-76
2023/05/07 05:20:13;;;;;;;23.75;17.95;;;;;;;;;;4942015;29;20039;-76
2023/05/07 05:22:39;;;;;;;18.98;13.82;;;;;;;;;;4942315;29;20043;-76
2023/05/07 05:25:05;;;;;;;19.05;14.20;;;;;;;;;;4941714;29;20121;-76
2023/05/07 05:27:32;;;;;;;26.85;19.45;;;;;;;;;;4942082;29;20453;-76
2023/05/07 05:29:58;;;;;;;25.35;18.33;;;;;;;;;;4941965;29;20103;-77
2023/05/07 05:32:24;;;;;;;31.48;21.80;;;;;;;;;;4941046;29;20497;-77
2023/05/07 05:34:50;;;;;;;18.13;12.82;;;;;;;;;;4942185;29;20031;-77
2023/05/07 05:37:16;;;;;;;38.67;26.27;;;;;;;;;;4942011;29;20047;-77
2023/05/07 05:39:42;;;;;;;20.98;14.95;;;;;;;;;;4941712;29;20039;-77
2023/05/07 05:42:08;;;;;;;28.73;21.30;;;;;;;;;;4941480;29;20039;-77
2023/05/07 05:44:34;;;;;;;24.55;17.85;;;;;;;;;;4941583;29;20063;-77
2023/05/07 05:47:01;;;;;;;56.85;34.35;;;;;;;;;;4941903;29;20027;-76
2023/05/07 05:49:27;;;;;;;23.42;14.35;;;;;;;;;;4945260;29;20024;-76
2023/05/07 05:51:53;;;;;;;62.45;41.30;;;;;;;;;;4944601;29;20035;-76
2023/05/07 05:54:19;;;;;;;30.15;19.77;;;;;;;;;;4950622;29;20043;-77
2023/05/07 05:56:45;;;;;;;47.70;25.35;;;;;;;;;;4941881;29;20111;-77
2023/05/07 05:59:11;;;;;;;31.98;18.20;;;;;;;;;;4945058;29;20031;-77
2023/05/07 06:01:37;;;;;;;30.67;20.10;;;;;;;;;;4941816;29;20031;-77
2023/05/07 06:04:04;;;;;;;17.85;11.48;;;;;;;;;;4941852;29;20023;-78
2023/05/07 06:06:31;;;;;;;31.58;20.13;;;;;;;;;;4941809;29;20030;-77
2023/05/07 06:08:57;;;;;;;27.35;18.63;;;;;;;;;;4955414;29;20031;-76
2023/05/07 06:11:23;;;;;;;19.17;12.40;;;;;;;;;;4941175;29;20042;-77
2023/05/07 06:13:49;;;;;;;25.63;16.23;;;;;;;;;;4928582;29;20039;-77
2023/05/07 06:16:15;;;;;;;31.13;20.25;;;;;;;;;;4939911;29;20118;-77
2023/05/07 06:18:41;;;;;;;17.95;11.77;;;;;;;;;;4941274;29;20043;-76
2023/05/07 06:21:07;;;;;;;23.10;12.35;;;;;;;;;;4940961;29;20059;-77
2023/05/07 06:23:33;;;;;;;30.90;18.05;;;;;;;;;;4943007;29;20031;-76
2023/05/07 06:25:59;;;;;;;12.93;9.25;;;;;;;;;;4930546;29;20028;-76
2023/05/07 06:28:25;;;;;;;21.63;12.57;;;;;;;;;;4941074;29;20075;-77
2023/05/07 06:30:51;;;;;;;30.63;17.60;;;;;;;;;;4946188;29;20063;-77
2023/05/07 06:33:19;;;;;;;16.17;9.43;;;;;;;;;;4957763;29;20058;-77
2023/05/07 06:35:45;;;;;;;16.38;9.60;;;;;;;;;;4941192;29;20115;-77
2023/05/07 06:38:12;;;;;;;14.02;10.50;;;;;;;;;;4942884;29;20051;-76
2023/05/07 06:40:38;;;;;;;15.95;8.48;;;;;;;;;;4960381;29;20034;-76
2023/05/07 06:43:04;;;;;;;17.75;12.20;;;;;;;;;;4960137;29;20126;-78
2023/05/07 06:45:30;;;;;;;12.88;7.60;;;;;;;;;;4958731;29;20030;-77
2023/05/07 06:47:56;;;;;;;14.38;9.13;;;;;;;;;;4955786;29;20031;-77
2023/05/07 06:50:22;;;;;;;13.50;7.95;;;;;;;;;;4946475;29;20046;-77
2023/05/07 06:52:48;;;;;;;14.88;9.52;;;;;;;;;;4939168;29;20031;-77
2023/05/07 06:55:14;;;;;;;9.55;6.05;;;;;;;;;;4941176;29;20051;-76
2023/05/07 06:57:40;;;;;;;9.38;6.43;;;;;;;;;;4940718;29;20032;-77
2023/05/07 07:00:08;;;;;;;9.27;6.82;;;;;;;;;;4940529;29;20038;-76
2023/05/07 07:02:34;;;;;;;14.38;8.02;;;;;;;;;;4940480;29;20039;-77
2023/05/07 07:05:00;;;;;;;19.13;6.40;;;;;;;;;;4940471;29;20024;-77
2023/05/07 07:07:26;;;;;;;9.60;6.45;;;;;;;;;;4940777;29;20059;-77
2023/05/07 07:09:52;;;;;;;10.85;7.57;;;;;;;;;;4937250;29;20023;-76
2023/05/07 07:12:18;;;;;;;10.05;5.80;;;;;;;;;;4939347;29;20031;-77
2023/05/07 07:14:44;;;;;;;9.55;7.03;;;;;;;;;;4940159;29;20023;-77
2023/05/07 07:17:10;;;;;;;11.32;6.35;;;;;;;;;;4927141;29;20023;-77
2023/05/07 07:19:37;;;;;;;13.55;4.50;;;;;;;;;;4952241;29;20023;-77
2023/05/07 07:22:03;;;;;;;11.25;7.68;;;;;;;;;;4946131;29;20039;-77
2023/05/07 07:24:29;;;;;;;10.30;7.00;;;;;;;;;;4951257;29;20028;-78
2023/05/07 07:26:55;;;;;;;11.30;6.20;;;;;;;;;;4940027;29;20020;-78
2023/05/07 07:29:21;;;;;;;9.38;5.40;;;;;;;;;;4940362;29;20077;-79
2023/05/07 07:31:49;;;;;;;12.30;5.22;;;;;;;;;;4939406;29;20023;-78
2023/05/07 07:34:15;;;;;;;9.70;5.00;;;;;;;;;;4940693;29;20039;-78
2023/05/07 07:36:41;;;;;;;9.93;5.90;;;;;;;;;;4942822;29;20494;-78
2023/05/07 07:39:08;;;;;;;10.40;4.70;;;;;;;;;;4925653;29;20437;-77
2023/05/07 07:41:34;;;;;;;7.18;5.05;;;;;;;;;;4956806;29;20437;-78
2023/05/07 07:44:00;;;;;;;13.02;6.95;;;;;;;;;;4949522;29;20031;-77
2023/05/07 07:46:26;;;;;;;8.60;4.60;;;;;;;;;;4939885;29;20052;-77
2023/05/07 07:48:58;;;;;;;6.20;4.90;;;;;;;;;;4938064;29;20415;-77
2023/05/07 07:51:24;;;;;;;5.57;4.32;;;;;;;;;;4947175;29;20035;-77
2023/05/07 07:53:50;;;;;;;9.70;5.32;;;;;;;;;;4954969;29;20037;-78
2023/05/07 07:56:16;;;;;;;10.13;5.38;;;;;;;;;;4931399;29;20034;-78
2023/05/07 07:58:42;;;;;;;6.88;5.15;;;;;;;;;;4927626;29;20038;-77
2023/05/07 08:01:08;;;;;;;10.57;5.60;;;;;;;;;;4948048;29;20429;-78
2023/05/07 08:03:35;;;;;;;6.28;4.82;;;;;;;;;;4958820;29;20359;-77
2023/05/07 08:06:01;;;;;;;189.55;106.50;;;;;;;;;;4925140;29;20122;-78
2023/05/07 08:08:27;;;;;;;60.03;34.63;;;;;;;;;;4939623;29;20036;-78
2023/05/07 08:10:53;;;;;;;58.50;33.85;;;;;;;;;;4951684;29;20024;-78
2023/05/07 08:13:19;;;;;;;69.22;38.10;;;;;;;;;;4956437;29;20023;-78
2023/05/07 08:15:45;;;;;;;26.38;14.77;;;;;;;;;;4938748;29;20019;-78
2023/05/07 08:18:11;;;;;;;24.13;13.07;;;;;;;;;;4939509;29;20071;-78
2023/05/07 08:20:39;;;;;;;28.30;16.35;;;;;;;;;;4939826;29;20039;-78
2023/05/07 08:23:07;;;;;;;271.27;104.53;;;;;;;;;;4940601;29;20030;-78
2023/05/07 08:25:34;;;;;;;143.82;53.67;;;;;;;;;;4938443;29;20127;-78
2023/05/07 08:28:00;;;;;;;97.72;37.50;;;;;;;;;;4939473;29;20068;-78
2023/05/07 08:30:26;;;;;;;57.40;26.40;;;;;;;;;;4945320;29;20028;-78
2023/05/07 08:32:52;;;;;;;23.77;9.20;;;;;;;;;;4943724;29;20350;-79
2023/05/07 08:35:19;;;;;;;18.83;8.73;;;;;;;;;;4940347;29;20031;-79
2023/05/07 08:37:47;;;;;;;18.50;6.80;;;;;;;;;;4936543;29;20043;-79
2023/05/07 08:40:13;;;;;;;14.43;5.28;;;;;;;;;;4941533;29;20038;-79
2023/05/07 08:42:40;;;;;;;13.50;5.38;;;;;;;;;;4951407;29;20036;-77
2023/05/07 08:45:10;;;;;;;11.55;5.38;;;;;;;;;;4942049;29;20027;-78
2023/05/07 08:47:40;;;;;;;7.78;5.25;;;;;;;;;;4923975;29;20020;-80
2023/05/07 08:50:07;;;;;;;8.23;4.75;;;;;;;;;;4924294;29;20028;-77
2023/05/07 08:52:33;;;;;;;7.60;4.38;;;;;;;;;;4923990;29;20416;-79
2023/05/07 08:54:59;;;;;;;9.07;4.43;;;;;;;;;;4923833;29;20040;-78
2023/05/07 08:57:30;;;;;;;11.05;4.32;;;;;;;;;;4923020;29;20039;-78
2023/05/07 08:59:56;;;;;;;6.68;3.97;;;;;;;;;;4923848;29;20032;-78
2023/05/07 09:02:22;;;;;;;13.50;5.13;;;;;;;;;;4923783;29;20032;-78
2023/05/07 09:04:48;;;;;;;8.82;3.80;;;;;;;;;;4924068;29;20028;-78
2023/05/07 09:07:14;;;;;;;7.47;3.60;;;;;;;;;;4924783;29;20031;-80
2023/05/07 09:09:42;;;;;;;8.68;4.50;;;;;;;;;;4955600;29;20054;-77
2023/05/07 09:12:08;;;;;;;6.10;4.00;;;;;;;;;;4954415;29;20152;-77
2023/05/07 09:14:37;;;;;;;7.22;3.92;;;;;;;;;;4942491;29;20364;-77
2023/05/07 09:17:03;;;;;;;10.45;4.93;;;;;;;;;;4942522;29;20053;-78
2023/05/07 09:19:29;;;;;;;7.20;4.30;;;;;;;;;;4944027;29;20086;-76
2023/05/07 09:22:02;;;;;;;8.85;4.18;;;;;;;;;;4960564;29;20031;-77
2023/05/07 09:24:33;;;;;;;8.55;4.00;;;;;;;;;;4942157;29;20043;-77
2023/05/07 09:27:02;;;;;;;6.45;3.72;;;;;;;;;;4942367;29;20028;-79
2023/05/07 09:29:29;;;;;;;6.80;3.33;;;;;;;;;;4930727;29;20036;-79
2023/05/07 09:31:55;;;;;;;11.32;4.15;;;;;;;;;;4942322;29;20056;-79
2023/05/07 09:34:22;;;;;;;7.07;4.30;;;;;;;;;;4946826;29;20107;-79
2023/05/07 09:36:49;;;;;;;12.52;3.90;;;;;;;;;;4942133;29;20052;-78
2023/05/07 09:39:15;;;;;;;5.82;3.65;;;;;;;;;;4942161;29;20075;-76
2023/05/07 09:41:45;;;;;;;4.68;3.83;;;;;;;;;;4941959;29;20031;-76
2023/05/07 09:44:11;;;;;;;7.88;3.08;;;;;;;;;;4942012;29;20016;-76
2023/05/07 09:46:37;;;;;;;7.82;3.83;;;;;;;;;;4895743;29;20111;-78
2023/05/07 09:49:06;;;;;;;7.00;3.72;;;;;;;;;;4907256;29;20024;-80
2023/05/07 09:51:48;;;;;;;25.00;19.15;;;;;;;;;;4902569;29;20047;-80
2023/05/07 09:54:14;;;;;;;20.20;13.25;;;;;;;;;;4903993;29;20031;-80
2023/05/07 09:56:43;;;;;;;23.52;11.63;;;;;;;;;;4903697;29;20323;-80
2023/05/07 09:59:13;;;;;;;11.73;5.40;;;;;;;;;;4902868;29;20045;-80
2023/05/07 10:01:40;;;;;;;11.63;6.07;;;;;;;;;;4912624;29;20032;-81
2023/05/07 10:04:08;;;;;;;7.90;4.20;;;;;;;;;;4921035;29;20067;-78
2023/05/07 10:06:38;;;;;;;10.07;4.07;;;;;;;;;;4922700;29;20084;-79
2023/05/07 10:09:05;;;;;;;7.35;4.13;;;;;;;;;;4921621;29;20107;-79
2023/05/07 10:11:33;;;;;;;9.82;3.50;;;;;;;;;;4922885;29;20109;-78
2023/05/07 10:14:01;;;;;;;9.38;3.25;;;;;;;;;;4914551;29;20419;-78
2023/05/07 10:16:28;;;;;;;7.03;3.40;;;;;;;;;;4917282;29;20032;-78
2023/05/07 10:18:54;;;;;;;4.93;3.03;;;;;;;;;;4919273;29;20025;-78
2023/05/07 10:21:22;;;;;;;7.95;3.58;;;;;;;;;;4910244;29;20025;-78
2023/05/07 10:23:54;;;;;;;7.20;2.60;;;;;;;;;;4922149;29;20017;-77
2023/05/07 10:26:22;;;;;;;5.85;3.00;;;;;;;;;;4916332;29;20036;-78
2023/05/07 10:28:51;;;;;;;6.80;2.42;;;;;;;;;;4922561;29;20155;-78
2023/05/07 10:31:36;;;;;;;35.08;20.67;;;;;;;;;;4914134;29;20036;-78
2023/05/07 10:34:05;;;;;;;7.72;4.18;;;;;;;;;;4915452;29;20055;-78
2023/05/07 10:36:33;;;;;;;4.07;2.60;;;;;;;;;;4907260;29;20436;-79
2023/05/07 10:38:59;;;;;;;5.50;2.38;;;;;;;;;;4927492;29;20380;-79
2023/05/07 10:41:26;;;;;;;6.45;3.03;;;;;;;;;;4924160;29;20028;-77
2023/05/07 10:43:52;;;;;;;13.35;3.70;;;;;;;;;;4939640;29;20106;-77
2023/05/07 10:46:18;;;;;;;4.78;2.78;;;;;;;;;;4941745;29;20028;-80
2023/05/07 10:49:03;;;;;;;8.57;3.05;;;;;;;;;;4945476;29;20441;-78
2023/05/07 10:51:31;;;;;;;6.55;2.95;;;;;;;;;;4941131;29;20058;-79
2023/05/07 10:54:15;;;;;;;3.88;2.15;;;;;;;;;;4940819;29;20032;-78
2023/05/07 10:56:42;;;;;;;5.85;2.65;;;;;;;;;;4940891;29;20102;-78
2023/05/07 10:59:21;;;;;;;6.50;2.65;;;;;;;;;;4939283;29;20028;-80
2023/05/07 11:01:51;;;;;;;3.22;2.80;;;;;;;;;;4938803;29;20032;-82
2023/05/07 11:04:25;;;;;;;4.63;2.40;;;;;;;;;;4939663;29;20054;-79
2023/05/07 11:07:10;;;;;;;5.35;2.60;;;;;;;;;;4940200;29;20027;-78
2023/05/07 11:09:55;;;;;;;7.25;2.65;;;;;;;;;;4939717;29;20028;-79
2023/05/07 11:12:39;;;;;;;7.55;2.60;;;;;;;;;;4940561;29;20031;-78
2023/05/07 11:15:05;;;;;;;5.72;3.25;;;;;;;;;;4938654;29;20072;-79
2023/05/07 11:17:31;;;;;;;5.57;3.05;;;;;;;;;;4940034;29;20055;-78
2023/05/07 11:19:58;;;;;;;4.95;2.97;;;;;;;;;;4939293;29;20032;-82
2023/05/07 11:22:36;;;;;;;3.92;2.95;;;;;;;;;;4940840;29;20126;-80
2023/05/07 11:25:05;;;;;;;4.70;3.03;;;;;;;;;;4945789;29;20079;-80
2023/05/07 11:27:32;;;;;;;6.75;2.90;;;;;;;;;;4940118;29;20024;-80
2023/05/07 11:29:58;;;;;;;4.25;3.05;;;;;;;;;;4939458;29;20020;-80
2023/05/07 11:32:28;;;;;;;4.43;3.25;;;;;;;;;;4940294;29;20116;-82
2023/05/07 11:34:55;;;;;;;3.88;2.90;;;;;;;;;;4938727;29;20063;-81
2023/05/07 11:37:22;;;;;;;5.97;3.33;;;;;;;;;;4940010;29;20051;-81
2023/05/07 11:39:48;;;;;;;3.30;3.00;;;;;;;;;;4939520;29;20445;-79
2023/05/07 11:42:30;;;;;;;5.25;3.15;;;;;;;;;;4940122;29;20043;-78
2023/05/07 11:44:56;;;;;;;5.95;2.95;;;;;;;;;;4939792;29;20023;-79
2023/05/07 11:47:22;;;;;;;3.20;2.83;;;;;;;;;;4939758;29;20031;-79
2023/05/07 11:49:51;;;;;;;6.68;3.10;;;;;;;;;;4936823;29;20404;-80
2023/05/07 11:52:18;;;;;;;4.03;2.85;;;;;;;;;;4938422;29;20430;-84
2023/05/07 11:54:51;;;;;;;8.07;3.40;;;;;;;;;;4939853;29;20028;-82
2023/05/07 11:57:17;;;;;;;5.63;3.10;;;;;;;;;;4930229;29;20032;-81
2023/05/07 11:59:49;;;;;;;3.92;2.95;;;;;;;;;;4937918;29;20334;-83
2023/05/07 12:02:15;;;;;;;3.78;2.72;;;;;;;;;;4937609;29;20042;-81
2023/05/07 12:04:42;;;;;;;7.32;2.92;;;;;;;;;;4932643;29;20106;-80
2023/05/07 12:07:14;;;;;;;3.78;2.92;;;;;;;;;;4939193;29;20024;-80
2023/05/07 12:09:43;;;;;;;3.40;3.10;;;;;;;;;;4938846;29;20050;-79
2023/05/07 12:12:09;;;;;;;5.85;3.50;;;;;;;;;;4938524;29;20390;-79
2023/05/07 12:14:39;;;;;;;5.18;2.83;;;;;;;;;;4937389;29;20363;-78
2023/05/07 12:17:06;;;;;;;3.10;2.80;;;;;;;;;;4939783;29;20058;-79
2023/05/07 12:19:34;;;;;;;4.57;2.80;;;;;;;;;;4931149;29;20064;-78
2023/05/07 12:22:00;;;;;;;4.20;2.65;;;;;;;;;;4920412;29;20470;-78
2023/05/07 12:24:48;;;;;;;7.57;3.08;;;;;;;;;;4920674;29;20103;-78
2023/05/07 12:27:15;;;;;;;4.50;3.28;;;;;;;;;;4920614;29;20027;-79
2023/05/07 12:29:46;;;;;;;4.93;3.10;;;;;;;;;;4920457;29;20026;-78
2023/05/07 12:32:21;;;;;;;5.90;2.93;;;;;;;;;;4919194;29;20372;-78
2023/05/07 12:34:49;;;;;;;7.10;3.40;;;;;;;;;;4919472;29;20366;-78
2023/05/07 12:37:15;;;;;;;3.40;2.78;;;;;;;;;;4920379;29;20052;-78
2023/05/07 12:39:45;;;;;;;6.35;2.90;;;;;;;;;;4920506;29;20119;-79
2023/05/07 12:42:15;;;;;;;4.38;2.72;;;;;;;;;;4920791;29;20036;-78
2023/05/07 12:44:42;;;;;;;5.22;2.80;;;;;;;;;;4920414;29;20059;-78
2023/05/07 12:47:08;;;;;;;5.07;3.20;;;;;;;;;;4919854;29;20120;-78
2023/05/07 12:49:38;;;;;;;5.07;2.60;;;;;;;;;;4930576;29;20415;-78
2023/05/07 12:52:04;;;;;;;4.30;3.25;;;;;;;;;;4919374;29;20491;-76
2023/05/07 12:54:34;;;;;;;5.25;3.10;;;;;;;;;;4919458;29;20087;-77
2023/05/07 12:57:01;;;;;;;4.28;3.17;;;;;;;;;;4924460;29;20031;-79
2023/05/07 12:59:33;;;;;;;6.85;2.83;;;;;;;;;;4907480;29;20066;-77
2023/05/07 13:01:59;;;;;;;5.35;3.28;;;;;;;;;;4932727;29;20055;-78
2023/05/07 13:04:25;;;;;;;5.70;2.78;;;;;;;;;;4920305;29;20031;-78
2023/05/07 13:06:52;;;;;;;4.60;3.10;;;;;;;;;;4920185;29;20035;-79
2023/05/07 13:09:18;;;;;;;6.32;3.20;;;;;;;;;;4920078;29;20173;-78
2023/05/07 13:11:46;;;;;;;8.73;3.35;;;;;;;;;;4919630;29;20141;-78
2023/05/07 13:14:12;;;;;;;7.57;3.35;;;;;;;;;;4918741;29;20036;-78
2023/05/07 13:16:38;;;;;;;5.85;3.03;;;;;;;;;;4931021;29;20111;-78
2023/05/07 13:19:04;;;;;;;7.82;3.00;;;;;;;;;;4922127;29;20043;-78
2023/05/07 13:21:33;;;;;;;4.15;3.05;;;;;;;;;;4918941;29;20032;-79
2023/05/07 13:24:00;;;;;;;4.53;2.85;;;;;;;;;;4917928;29;20055;-79
2023/05/07 13:26:26;;;;;;;9.95;3.10;;;;;;;;;;4922057;29;20024;-80
2023/05/07 13:28:55;;;;;;;4.78;3.00;;;;;;;;;;4923438;29;20043;-80
2023/05/07 13:31:21;;;;;;;8.77;3.35;;;;;;;;;;4923395;29;20039;-80
2023/05/07 13:33:48;;;;;;;5.70;3.80;;;;;;;;;;4922227;29;20038;-79
2023/05/07 13:36:14;;;;;;;8.07;3.03;;;;;;;;;;4922562;29;20036;-79
2023/05/07 13:38:40;;;;;;;10.65;3.42;;;;;;;;;;4934187;29;20134;-79
2023/05/07 13:41:08;;;;;;;6.78;3.30;;;;;;;;;;4921242;29;20083;-78
2023/05/07 13:43:34;;;;;;;5.13;2.92;;;;;;;;;;4928608;29;20063;-78
2023/05/07 13:46:01;;;;;;;9.45;2.80;;;;;;;;;;4937713;29;20028;-78
2023/05/07 13:48:28;;;;;;;6.40;3.75;;;;;;;;;;4926724;29;20031;-78
2023/05/07 13:50:54;;;;;;;4.75;2.75;;;;;;;;;;4938404;29;20032;-78
2023/05/07 13:53:20;;;;;;;5.75;3.20;;;;;;;;;;4917450;29;20020;-79
2023/05/07 13:55:46;;;;;;;4.22;3.10;;;;;;;;;;4922344;29;20474;-78
2023/05/07 13:58:12;;;;;;;6.35;2.92;;;;;;;;;;4920971;29;20039;-77
2023/05/07 14:00:38;;;;;;;6.40;3.20;;;;;;;;;;4943559;29;20042;-79
2023/05/07 14:03:05;;;;;;;5.55;2.97;;;;;;;;;;4922766;29;20027;-78
2023/05/07 14:05:31;;;;;;;3.95;2.95;;;;;;;;;;4927656;29;20028;-79
2023/05/07 14:07:58;;;;;;;7.85;2.78;;;;;;;;;;4929156;29;20040;-78
2023/05/07 14:10:24;;;;;;;5.88;2.83;;;;;;;;;;4926746;29;20115;-78
2023/05/07 14:12:50;;;;;;;4.85;3.10;;;;;;;;;;4937228;29;20289;-78
2023/05/07 14:15:17;;;;;;;5.88;2.67;;;;;;;;;;4919742;29;20028;-77
2023/05/07 14:17:43;;;;;;;8.65;3.35;;;;;;;;;;4936845;29;20051;-77
2023/05/07 14:20:10;;;;;;;8.02;3.38;;;;;;;;;;4934888;29;20041;-80
2023/05/07 14:22:36;;;;;;;14.57;3.40;;;;;;;;;;4952852;29;20035;-78
2023/05/07 14:25:02;;;;;;;5.55;3.20;;;;;;;;;;4922394;29;20020;-78
